createdAt,value
2023-01-29T00:02:24.891Z,100.00
2023-01-29T00:04:53.740Z,100.00
2023-01-29T00:07:26.878Z,100.00
2023-01-29T00:09:55.498Z,100.00
2023-01-29T00:12:23.659Z,100.00
2023-01-29T00:14:53.143Z,100.00
2023-01-29T00:17:21.468Z,100.00
2023-01-29T00:19:49.593Z,100.00
2023-01-29T00:22:17.675Z,100.00
2023-01-29T00:24:47.069Z,100.00
2023-01-29T00:27:15.584Z,100.00
2023-01-29T00:29:43.795Z,100.00
2023-01-29T00:32:12.037Z,100.00
2023-01-29T00:34:40.219Z,100.00
2023-01-29T00:37:09.012Z,100.00
2023-01-29T00:39:47.866Z,100.00
2023-01-29T00:42:35.234Z,100.00
2023-01-29T00:45:03.356Z,100.00
2023-01-29T00:47:34.616Z,100.00
2023-01-29T00:50:03.252Z,100.00
2023-01-29T00:52:31.727Z,100.00
2023-01-29T00:55:01.483Z,100.00
2023-01-29T00:57:33.061Z,100.00
2023-01-29T01:00:01.164Z,100.00
2023-01-29T01:02:47.246Z,100.00
2023-01-29T01:05:19.025Z,100.00
2023-01-29T01:07:48.261Z,100.00
2023-01-29T01:10:24.278Z,100.00
2023-01-29T01:12:58.070Z,100.00
2023-01-29T01:15:28.269Z,100.00
2023-01-29T01:17:58.315Z,100.00
2023-01-29T01:20:28.629Z,100.00
2023-01-29T01:22:57.057Z,100.00
2023-01-29T01:25:26.496Z,100.00
2023-01-29T01:27:57.268Z,100.00
2023-01-29T01:30:25.949Z,100.00
2023-01-29T01:32:54.359Z,100.00
2023-01-29T01:35:22.498Z,100.00
2023-01-29T01:37:50.688Z,100.00
2023-01-29T01:40:20.085Z,100.00
2023-01-29T01:42:50.296Z,100.00
2023-01-29T01:45:26.825Z,100.00
2023-01-29T01:48:00.815Z,100.00
2023-01-29T01:50:32.631Z,100.00
2023-01-29T01:53:04.323Z,100.00
2023-01-29T01:55:37.211Z,100.00
2023-01-29T01:58:10.114Z,100.00
2023-01-29T02:00:41.015Z,100.00
2023-01-29T02:03:29.240Z,100.00
2023-01-29T02:06:17.613Z,100.00
2023-01-29T02:09:11.685Z,100.00
2023-01-29T02:11:39.943Z,100.00
2023-01-29T02:14:08.442Z,100.00
2023-01-29T02:16:38.420Z,100.00
2023-01-29T02:19:12.491Z,100.00
2023-01-29T02:22:06.546Z,100.00
2023-01-29T02:24:57.188Z,100.00
2023-01-29T02:27:34.985Z,100.00
2023-01-29T02:30:09.258Z,100.00
2023-01-29T02:32:54.291Z,100.00
2023-01-29T02:35:32.131Z,100.00
2023-01-29T02:38:12.962Z,100.00
2023-01-29T02:40:46.860Z,100.00
2023-01-29T02:43:26.992Z,100.00
2023-01-29T02:46:03.993Z,100.00
2023-01-29T02:48:42.796Z,100.00
2023-01-29T02:51:16.618Z,100.00
2023-01-29T02:53:54.669Z,100.00
2023-01-29T02:56:30.183Z,100.00
2023-01-29T02:59:03.210Z,100.00
2023-01-29T03:01:37.844Z,100.00
2023-01-29T03:04:13.169Z,100.00
2023-01-29T03:06:45.306Z,100.00
2023-01-29T03:09:21.003Z,100.00
2023-01-29T03:11:54.048Z,100.00
2023-01-29T03:14:26.544Z,100.00
2023-01-29T03:16:56.423Z,100.00
2023-01-29T03:19:32.136Z,100.00
2023-01-29T03:22:04.320Z,100.00
2023-01-29T03:24:58.624Z,100.00
2023-01-29T03:27:48.120Z,100.00
2023-01-29T03:30:36.401Z,100.00
2023-01-29T03:33:09.221Z,100.00
2023-01-29T03:35:41.640Z,100.00
2023-01-29T03:38:12.646Z,100.00
2023-01-29T03:40:48.885Z,100.00
2023-01-29T03:43:27.921Z,100.00
2023-01-29T03:46:03.817Z,100.00
2023-01-29T03:48:37.924Z,100.00
2023-01-29T03:51:16.152Z,100.00
2023-01-29T03:53:49.893Z,100.00
2023-01-29T03:56:28.847Z,100.00
2023-01-29T03:59:01.921Z,100.00
2023-01-29T04:01:34.799Z,100.00
2023-01-29T04:04:10.224Z,100.00
2023-01-29T04:06:42.504Z,100.00
2023-01-29T04:09:16.625Z,100.00
2023-01-29T04:11:49.069Z,100.00
2023-01-29T04:14:18.842Z,100.00
2023-01-29T04:16:51.121Z,100.00
2023-01-29T04:19:20.869Z,100.00
2023-01-29T04:21:52.044Z,100.00
2023-01-29T04:24:20.364Z,100.00
2023-01-29T04:26:59.335Z,100.00
2023-01-29T04:29:41.552Z,100.00
2023-01-29T04:32:16.893Z,100.00
2023-01-29T04:35:00.192Z,100.00
2023-01-29T04:37:37.714Z,100.00
2023-01-29T04:40:16.836Z,100.00
2023-01-29T04:42:53.422Z,100.00
2023-01-29T04:45:29.082Z,100.00
2023-01-29T04:48:08.054Z,100.00
2023-01-29T04:50:41.431Z,100.00
2023-01-29T04:53:16.650Z,100.00
2023-01-29T04:55:50.885Z,100.00
2023-01-29T04:58:27.846Z,100.00
2023-01-29T05:00:56.515Z,100.00
2023-01-29T05:03:28.548Z,100.00
2023-01-29T05:06:01.569Z,100.00
2023-01-29T05:08:31.861Z,100.00
2023-01-29T05:11:01.398Z,100.00
2023-01-29T05:13:32.952Z,100.00
2023-01-29T05:16:05.580Z,100.00
2023-01-29T05:18:33.906Z,100.00
2023-01-29T05:21:07.728Z,100.00
2023-01-29T05:23:35.920Z,100.00
2023-01-29T05:26:04.090Z,100.00
2023-01-29T05:28:31.359Z,100.00
2023-01-29T05:30:59.626Z,100.00
2023-01-29T05:33:29.470Z,100.00
2023-01-29T05:35:59.627Z,100.00
2023-01-29T05:38:29.408Z,100.00
2023-01-29T05:41:00.008Z,100.00
2023-01-29T05:43:28.139Z,100.00
2023-01-29T05:45:57.371Z,100.00
2023-01-29T05:48:26.070Z,100.00
2023-01-29T05:50:54.162Z,100.00
2023-01-29T05:53:22.413Z,100.00
2023-01-29T05:55:51.858Z,100.00
2023-01-29T05:58:20.070Z,100.00
2023-01-29T06:00:48.181Z,100.00
2023-01-29T06:03:16.394Z,100.00
2023-01-29T06:05:44.577Z,100.00
2023-01-29T06:08:13.331Z,100.00
2023-01-29T06:10:41.453Z,100.00
2023-01-29T06:13:10.918Z,100.00
2023-01-29T06:15:40.979Z,100.00
2023-01-29T06:18:09.132Z,100.00
2023-01-29T06:20:37.940Z,100.00
2023-01-29T06:23:05.940Z,100.00
2023-01-29T06:25:34.115Z,100.00
2023-01-29T06:28:02.364Z,100.00
2023-01-29T06:30:32.069Z,100.00
2023-01-29T06:33:01.706Z,100.00
2023-01-29T06:35:29.994Z,100.00
2023-01-29T06:37:58.176Z,100.00
2023-01-29T06:40:26.343Z,100.00
2023-01-29T06:42:54.431Z,100.00
2023-01-29T06:45:22.474Z,100.00
2023-01-29T06:47:51.917Z,100.00
2023-01-29T06:50:20.073Z,100.00
2023-01-29T06:52:48.123Z,100.00
2023-01-29T06:55:16.172Z,100.00
2023-01-29T06:57:44.208Z,100.00
2023-01-29T07:00:13.514Z,100.00
2023-01-29T07:02:41.593Z,100.00
2023-01-29T07:05:11.176Z,100.00
2023-01-29T07:07:39.334Z,100.00
2023-01-29T07:10:08.481Z,100.00
2023-01-29T07:12:36.582Z,100.00
2023-01-29T07:15:05.059Z,100.00
2023-01-29T07:17:33.130Z,100.00
2023-01-29T07:20:01.287Z,100.00
2023-01-29T07:22:30.782Z,100.00
2023-01-29T07:24:59.060Z,100.00
2023-01-29T07:27:27.165Z,100.00
2023-01-29T07:29:55.221Z,100.00
2023-01-29T07:32:23.521Z,100.00
2023-01-29T07:34:51.642Z,100.00
2023-01-29T07:37:19.627Z,100.00
2023-01-29T07:39:49.077Z,100.00
2023-01-29T07:42:17.075Z,100.00
2023-01-29T07:44:48.190Z,100.00
2023-01-29T07:47:17.244Z,100.00
2023-01-29T07:49:45.542Z,100.00
2023-01-29T07:52:13.827Z,100.00
2023-01-29T07:54:42.038Z,100.00
2023-01-29T07:57:11.489Z,100.00
2023-01-29T07:59:39.634Z,100.00
2023-01-29T08:02:08.174Z,100.00
2023-01-29T08:04:36.326Z,100.00
2023-01-29T08:07:04.980Z,100.00
2023-01-29T08:09:33.137Z,100.00
2023-01-29T08:12:01.267Z,100.00
2023-01-29T08:14:30.679Z,100.00
2023-01-29T08:16:58.849Z,100.00
2023-01-29T08:19:26.949Z,100.00
2023-01-29T08:21:55.104Z,100.00
2023-01-29T08:24:28.211Z,100.00
2023-01-29T08:27:05.065Z,100.00
2023-01-29T08:29:34.622Z,100.00
2023-01-29T08:32:03.005Z,100.00
2023-01-29T08:34:31.112Z,100.00
2023-01-29T08:36:59.320Z,100.00
2023-01-29T08:39:27.370Z,100.00
2023-01-29T08:41:55.540Z,100.00
2023-01-29T08:44:23.637Z,100.00
2023-01-29T08:46:53.077Z,100.00
2023-01-29T08:49:21.062Z,100.00
2023-01-29T08:51:49.122Z,100.00
2023-01-29T08:54:17.378Z,100.00
2023-01-29T08:56:45.880Z,100.00
2023-01-29T08:59:14.150Z,100.00
2023-01-29T09:01:42.356Z,100.00
2023-01-29T09:04:11.885Z,100.00
2023-01-29T09:06:40.014Z,100.00
2023-01-29T09:09:08.330Z,100.00
2023-01-29T09:11:36.508Z,100.00
2023-01-29T09:14:04.662Z,100.00
2023-01-29T09:16:32.856Z,100.00
2023-01-29T09:19:00.937Z,100.00
2023-01-29T09:21:30.375Z,100.00
2023-01-29T09:23:58.488Z,100.00
2023-01-29T09:26:26.581Z,100.00
2023-01-29T09:28:54.734Z,100.00
2023-01-29T09:31:23.044Z,100.00
2023-01-29T09:33:51.322Z,100.00
2023-01-29T09:36:19.485Z,100.00
2023-01-29T09:38:48.906Z,100.00
2023-01-29T09:41:37.115Z,100.00
2023-01-29T09:44:12.632Z,100.00
2023-01-29T09:46:43.111Z,100.00
2023-01-29T09:49:17.818Z,100.00
2023-01-29T09:51:50.163Z,100.00
2023-01-29T09:54:24.403Z,100.00
2023-01-29T09:56:56.663Z,100.00
2023-01-29T09:59:26.654Z,100.00
2023-01-29T10:02:05.014Z,100.00
2023-01-29T10:05:00.547Z,100.00
2023-01-29T10:07:46.318Z,100.00
2023-01-29T10:10:28.912Z,100.00
2023-01-29T10:13:06.804Z,100.00
2023-01-29T10:15:43.575Z,100.00
2023-01-29T10:18:32.079Z,100.00
2023-01-29T10:21:13.485Z,100.00
2023-01-29T10:23:45.133Z,100.00
2023-01-29T10:26:14.962Z,100.00
2023-01-29T10:28:46.515Z,100.00
2023-01-29T10:31:19.810Z,100.00
2023-01-29T10:34:02.137Z,100.00
2023-01-29T10:36:37.672Z,100.00
2023-01-29T10:39:07.126Z,100.00
2023-01-29T10:41:56.189Z,98.71
2023-01-29T10:44:34.447Z,99.53
2023-01-29T10:47:19.604Z,99.19
2023-01-29T10:50:00.538Z,97.65
2023-01-29T10:52:41.254Z,98.78
2023-01-29T10:55:25.665Z,97.84
2023-01-29T10:58:06.116Z,98.70
2023-01-29T11:00:37.650Z,98.76
2023-01-29T11:03:26.832Z,98.49
2023-01-29T11:06:04.046Z,98.23
2023-01-29T11:08:38.183Z,98.11
2023-01-29T11:11:10.556Z,97.88
2023-01-29T11:13:44.753Z,98.21
2023-01-29T11:16:12.869Z,99.04
2023-01-29T11:18:55.635Z,98.91
2023-01-29T11:21:24.575Z,99.19
2023-01-29T11:24:06.031Z,99.27
2023-01-29T11:26:39.365Z,98.60
2023-01-29T11:29:32.160Z,98.24
2023-01-29T11:32:01.525Z,98.37
2023-01-29T11:34:29.720Z,98.01
2023-01-29T11:37:00.275Z,97.75
2023-01-29T11:39:30.342Z,96.97
2023-01-29T11:42:00.462Z,97.06
2023-01-29T11:44:32.938Z,96.95
2023-01-29T11:47:18.734Z,95.61
2023-01-29T11:49:49.631Z,95.97
2023-01-29T11:52:20.340Z,95.11
2023-01-29T11:54:54.221Z,95.70
2023-01-29T11:57:29.302Z,95.83
2023-01-29T12:00:01.883Z,96.64
2023-01-29T12:02:37.313Z,96.36
2023-01-29T12:05:16.450Z,97.38
2023-01-29T12:07:46.560Z,97.59
2023-01-29T12:10:31.931Z,98.07
2023-01-29T12:13:05.792Z,99.25
2023-01-29T12:15:35.390Z,98.95
2023-01-29T12:18:14.082Z,100.00
2023-01-29T12:20:46.249Z,100.00
2023-01-29T12:23:28.543Z,100.00
2023-01-29T12:26:02.979Z,100.00
2023-01-29T12:28:43.853Z,100.00
2023-01-29T12:31:30.758Z,100.00
2023-01-29T12:34:06.665Z,100.00
2023-01-29T12:36:39.942Z,100.00
2023-01-29T12:39:10.109Z,100.00
2023-01-29T12:41:46.103Z,100.00
2023-01-29T12:44:18.237Z,100.00
2023-01-29T12:46:53.768Z,99.37
2023-01-29T12:49:26.106Z,99.37
2023-01-29T12:51:59.205Z,98.18
2023-01-29T12:54:36.190Z,98.12
2023-01-29T12:57:09.830Z,97.33
2023-01-29T12:59:43.190Z,97.68
2023-01-29T13:02:25.732Z,97.78
2023-01-29T13:05:00.528Z,97.49
2023-01-29T13:07:33.405Z,96.90
2023-01-29T13:10:13.845Z,95.39
2023-01-29T13:12:52.730Z,94.11
2023-01-29T13:15:26.113Z,94.18
2023-01-29T13:18:00.480Z,93.17
2023-01-29T13:20:31.341Z,93.29
2023-01-29T13:23:05.896Z,93.63
2023-01-29T13:25:34.028Z,94.24
2023-01-29T13:28:02.186Z,94.06
2023-01-29T13:30:32.224Z,94.57
2023-01-29T13:33:10.485Z,93.65
2023-01-29T13:35:43.848Z,93.23
2023-01-29T13:38:26.141Z,93.60
2023-01-29T13:40:58.258Z,93.62
2023-01-29T13:43:26.463Z,94.78
2023-01-29T13:45:55.905Z,94.12
2023-01-29T13:48:28.601Z,92.36
2023-01-29T13:50:58.557Z,92.35
2023-01-29T13:53:29.235Z,92.19
2023-01-29T13:56:30.617Z,91.73
2023-01-29T13:58:58.919Z,91.98
2023-01-29T14:02:04.606Z,91.09
2023-01-29T14:04:34.266Z,90.92
2023-01-29T14:07:04.288Z,91.23
2023-01-29T14:09:51.486Z,91.53
2023-01-29T14:12:46.679Z,91.09
2023-01-29T14:15:41.614Z,90.46
2023-01-29T14:18:28.609Z,90.45
2023-01-29T14:21:06.369Z,89.94
2023-01-29T14:23:48.165Z,89.78
2023-01-29T14:26:31.034Z,89.83
2023-01-29T14:29:03.706Z,90.41
2023-01-29T14:31:38.819Z,91.04
2023-01-29T14:34:14.752Z,90.20
2023-01-29T14:36:46.593Z,90.61
2023-01-29T14:39:24.671Z,90.78
2023-01-29T14:41:53.923Z,91.18
2023-01-29T14:44:59.205Z,91.03
2023-01-29T14:47:56.631Z,91.24
2023-01-29T14:50:48.245Z,92.35
2023-01-29T14:53:23.247Z,92.10
2023-01-29T14:55:54.175Z,92.18
2023-01-29T14:58:29.384Z,92.29
2023-01-29T15:00:59.925Z,92.52
2023-01-29T15:03:41.269Z,93.48
2023-01-29T15:06:16.712Z,93.92
2023-01-29T15:08:52.359Z,94.12
2023-01-29T15:11:40.040Z,94.49
2023-01-29T15:14:24.051Z,95.08
2023-01-29T15:17:08.864Z,95.55
2023-01-29T15:19:40.457Z,95.65
2023-01-29T15:22:13.235Z,96.82
2023-01-29T15:24:44.553Z,97.04
2023-01-29T15:27:16.540Z,97.28
2023-01-29T15:29:49.280Z,97.53
2023-01-29T15:32:29.720Z,98.16
2023-01-29T15:35:00.430Z,99.44
2023-01-29T15:37:31.482Z,99.70
2023-01-29T15:40:02.589Z,100.00
2023-01-29T15:42:44.669Z,100.00
2023-01-29T15:45:23.264Z,100.00
2023-01-29T15:47:52.177Z,99.94
2023-01-29T15:50:20.571Z,100.00
2023-01-29T15:52:52.217Z,100.00
2023-01-29T15:55:24.898Z,100.00
2023-01-29T15:57:53.332Z,100.00
2023-01-29T16:00:26.281Z,100.00
2023-01-29T16:02:54.834Z,100.00
2023-01-29T16:05:27.792Z,100.00
2023-01-29T16:07:58.812Z,100.00
2023-01-29T16:10:31.053Z,99.55
2023-01-29T16:13:00.109Z,99.02
2023-01-29T16:15:36.714Z,98.95
2023-01-29T16:18:20.518Z,98.24
2023-01-29T16:20:52.975Z,99.02
2023-01-29T16:23:25.703Z,98.96
2023-01-29T16:25:56.938Z,98.48
2023-01-29T16:28:25.295Z,98.50
2023-01-29T16:30:58.663Z,98.47
2023-01-29T16:33:34.818Z,98.59
2023-01-29T16:36:05.835Z,98.73
2023-01-29T16:38:36.768Z,98.66
2023-01-29T16:41:16.814Z,98.49
2023-01-29T16:43:53.309Z,99.24
2023-01-29T16:46:26.445Z,99.44
2023-01-29T16:48:55.030Z,99.44
2023-01-29T16:51:27.036Z,99.53
2023-01-29T16:54:00.476Z,99.85
2023-01-29T16:56:33.730Z,100.00
2023-01-29T16:59:05.607Z,100.00
2023-01-29T17:01:36.176Z,100.00
2023-01-29T17:04:10.124Z,100.00
2023-01-29T17:06:39.943Z,100.00
2023-01-29T17:09:08.646Z,100.00
2023-01-29T17:11:41.850Z,100.00
2023-01-29T17:14:11.383Z,100.00
2023-01-29T17:16:51.245Z,100.00
2023-01-29T17:19:23.743Z,100.00
2023-01-29T17:21:54.753Z,100.00
2023-01-29T17:24:22.844Z,100.00
2023-01-29T17:26:53.026Z,100.00
2023-01-29T17:29:24.859Z,100.00
2023-01-29T17:31:53.118Z,100.00
2023-01-29T17:34:21.246Z,100.00
2023-01-29T17:36:49.496Z,100.00
2023-01-29T17:39:19.799Z,100.00
2023-01-29T17:41:50.935Z,100.00
2023-01-29T17:44:20.921Z,100.00
2023-01-29T17:46:49.815Z,100.00
2023-01-29T17:49:24.861Z,100.00
2023-01-29T17:51:53.236Z,100.00
2023-01-29T17:54:22.067Z,100.00
2023-01-29T17:56:51.782Z,100.00
2023-01-29T17:59:23.038Z,100.00
2023-01-29T18:01:52.473Z,100.00
2023-01-29T18:04:20.866Z,100.00
2023-01-29T18:06:50.844Z,100.00
2023-01-29T18:09:21.530Z,100.00
2023-01-29T18:11:50.713Z,100.00
2023-01-29T18:14:19.284Z,100.00
2023-01-29T18:16:48.814Z,100.00
2023-01-29T18:19:21.735Z,100.00
2023-01-29T18:21:50.326Z,100.00
2023-01-29T18:24:20.453Z,100.00
2023-01-29T18:26:48.783Z,100.00
2023-01-29T18:29:16.892Z,100.00
2023-01-29T18:31:44.995Z,100.00
2023-01-29T18:34:14.506Z,100.00
2023-01-29T18:36:46.693Z,100.00
2023-01-29T18:39:15.042Z,100.00
2023-01-29T18:41:43.329Z,100.00
2023-01-29T18:44:11.877Z,100.00
2023-01-29T18:46:40.008Z,100.00
2023-01-29T18:49:08.114Z,100.00
2023-01-29T18:51:37.605Z,100.00
2023-01-29T18:54:06.027Z,100.00
2023-01-29T18:56:34.234Z,100.00
2023-01-29T18:59:03.120Z,100.00
2023-01-29T19:01:32.553Z,100.00
2023-01-29T19:04:01.839Z,100.00
2023-01-29T19:06:30.330Z,100.00
2023-01-29T19:08:59.851Z,100.00
2023-01-29T19:11:28.057Z,100.00
2023-01-29T19:13:56.103Z,100.00
2023-01-29T19:16:24.706Z,100.00
2023-01-29T19:18:56.043Z,100.00
2023-01-29T19:21:24.660Z,100.00
2023-01-29T19:23:52.825Z,100.00
2023-01-29T19:26:22.329Z,100.00
2023-01-29T19:28:51.093Z,100.00
2023-01-29T19:31:19.207Z,100.00
2023-01-29T19:33:47.360Z,100.00
2023-01-29T19:36:15.439Z,100.00
2023-01-29T19:38:43.566Z,100.00
2023-01-29T19:41:12.102Z,100.00
2023-01-29T19:43:43.052Z,100.00
2023-01-29T19:46:11.587Z,100.00
2023-01-29T19:48:39.638Z,100.00
2023-01-29T19:51:09.621Z,100.00
2023-01-29T19:53:38.429Z,100.00
2023-01-29T19:56:08.311Z,100.00
2023-01-29T19:58:37.115Z,100.00
2023-01-29T20:01:08.372Z,100.00
2023-01-29T20:03:38.056Z,100.00
2023-01-29T20:06:07.498Z,100.00
2023-01-29T20:08:36.473Z,100.00
2023-01-29T20:11:05.667Z,100.00
2023-01-29T20:13:34.276Z,100.00
2023-01-29T20:16:03.998Z,100.00
2023-01-29T20:18:34.040Z,100.00
2023-01-29T20:21:08.031Z,100.00
2023-01-29T20:23:38.723Z,100.00
2023-01-29T20:26:07.482Z,100.00
2023-01-29T20:28:36.275Z,100.00
2023-01-29T20:31:05.262Z,100.00
2023-01-29T20:33:37.031Z,100.00
2023-01-29T20:36:09.183Z,100.00
2023-01-29T20:38:37.325Z,100.00
2023-01-29T20:41:06.756Z,100.00
2023-01-29T20:43:35.469Z,100.00
2023-01-29T20:46:04.083Z,100.00
2023-01-29T20:48:33.221Z,100.00
2023-01-29T20:51:09.410Z,100.00
2023-01-29T20:53:38.537Z,100.00
2023-01-29T20:56:07.570Z,100.00
2023-01-29T20:58:35.849Z,100.00
2023-01-29T21:01:08.798Z,100.00
2023-01-29T21:03:36.881Z,100.00
2023-01-29T21:06:07.359Z,100.00
2023-01-29T21:08:36.333Z,100.00
2023-01-29T21:11:05.464Z,100.00
2023-01-29T21:13:33.752Z,100.00
2023-01-29T21:16:02.319Z,100.00
2023-01-29T21:18:30.872Z,100.00
2023-01-29T21:20:59.059Z,100.00
2023-01-29T21:23:28.595Z,100.00
2023-01-29T21:26:02.523Z,100.00
2023-01-29T21:28:30.579Z,100.00
2023-01-29T21:31:04.565Z,100.00
2023-01-29T21:33:34.115Z,100.00
2023-01-29T21:36:02.585Z,100.00
2023-01-29T21:38:32.124Z,100.00
2023-01-29T21:41:01.635Z,100.00
2023-01-29T21:43:28.953Z,100.00
2023-01-29T21:45:58.484Z,100.00
2023-01-29T21:48:27.143Z,100.00
2023-01-29T21:50:55.142Z,100.00
2023-01-29T21:53:23.470Z,100.00
2023-01-29T21:55:53.096Z,100.00
2023-01-29T21:58:21.209Z,100.00
2023-01-29T22:00:49.782Z,100.00
2023-01-29T22:03:18.062Z,100.00
2023-01-29T22:05:46.217Z,100.00
2023-01-29T22:08:14.890Z,100.00
2023-01-29T22:10:43.147Z,100.00
2023-01-29T22:13:12.731Z,100.00
2023-01-29T22:15:40.806Z,100.00
2023-01-29T22:18:11.098Z,100.00
2023-01-29T22:20:39.109Z,100.00
2023-01-29T22:23:07.107Z,100.00
2023-01-29T22:25:35.860Z,100.00
2023-01-29T22:28:03.936Z,100.00
2023-01-29T22:30:36.486Z,100.00
2023-01-29T22:33:04.730Z,100.00
2023-01-29T22:35:32.809Z,100.00
2023-01-29T22:38:01.163Z,100.00
2023-01-29T22:40:29.393Z,100.00
2023-01-29T22:42:57.515Z,100.00
2023-01-29T22:45:25.771Z,100.00
2023-01-29T22:47:55.380Z,100.00
2023-01-29T22:50:23.586Z,100.00
2023-01-29T22:52:53.920Z,100.00
2023-01-29T22:55:22.526Z,100.00
2023-01-29T22:57:50.951Z,100.00
2023-01-29T23:00:20.315Z,100.00
2023-01-29T23:02:48.555Z,100.00
2023-01-29T23:05:18.814Z,100.00
2023-01-29T23:07:46.944Z,100.00
2023-01-29T23:10:16.510Z,100.00
2023-01-29T23:12:44.880Z,100.00
2023-01-29T23:15:13.056Z,100.00
2023-01-29T23:17:41.190Z,100.00
2023-01-29T23:20:10.459Z,100.00
2023-01-29T23:22:39.996Z,100.00
2023-01-29T23:25:09.013Z,100.00
2023-01-29T23:27:36.247Z,100.00
2023-01-29T23:30:05.670Z,100.00
2023-01-29T23:32:34.280Z,100.00
2023-01-29T23:35:02.419Z,100.00
2023-01-29T23:37:30.474Z,100.00
2023-01-29T23:39:59.961Z,100.00
2023-01-29T23:42:28.101Z,100.00
2023-01-29T23:44:56.144Z,100.00
2023-01-29T23:47:24.177Z,100.00
2023-01-29T23:49:53.204Z,100.00
2023-01-29T23:52:21.296Z,100.00
2023-01-29T23:54:49.373Z,100.00
2023-01-29T23:57:18.866Z,100.00
2023-01-29T23:59:47.026Z,100.00
